Terminal Aerodrome Forecast
Issued by NWS Kansas City/Pleasant Hill, MO

Home | Current Version | Previous Version | Text Only | Print | Product List | Glossary On
Versions: 1 2 3 4 5 6 7 8 9 10 11 12 13 14 15 16
447
FTUS43 KEAX 281120
TAFMCI
TAF
KMCI 281120Z 2812/2912 07006KT P6SM SCT070
     FM281600 06010KT P6SM SCT045
     FM290100 VRB05KT P6SM FEW250=

USA.gov is the U.S. government's official web portal to all federal, state and local government web resources and services.